createdAt,value
2023-03-23T15:58:27.266Z,20.33
2023-03-23T16:00:01.040Z,12.15
2023-03-23T16:01:34.298Z,11.90
2023-03-23T16:03:13.741Z,10.13
2023-03-23T16:04:48.024Z,12.70
2023-03-23T16:06:25.500Z,18.85
2023-03-23T16:07:59.185Z,13.75
2023-03-23T16:09:32.472Z,20.58
2023-03-23T16:11:06.703Z,15.38
2023-03-23T16:12:40.082Z,17.17
2023-03-23T16:14:13.414Z,20.52
2023-03-23T16:15:48.738Z,16.58
2023-03-23T16:17:22.033Z,21.10
2023-03-23T16:18:56.924Z,21.70
2023-03-23T16:20:33.250Z,22.80
2023-03-23T16:22:08.363Z,25.30
2023-03-23T16:23:44.535Z,17.00
2023-03-23T16:25:19.277Z,23.02
2023-03-23T16:26:52.415Z,20.60
2023-03-23T16:28:25.759Z,21.25
2023-03-23T16:30:04.330Z,22.60
2023-03-23T16:31:38.125Z,20.23
2023-03-23T16:33:11.885Z,29.77
2023-03-23T16:34:46.417Z,19.77
2023-03-23T16:36:19.614Z,23.48
2023-03-23T16:38:07.392Z,17.75
2023-03-23T16:39:42.101Z,22.25
2023-03-23T16:41:15.257Z,17.48
2023-03-23T16:42:48.990Z,20.55
2023-03-23T16:44:22.432Z,25.83
2023-03-23T16:45:57.630Z,23.35
2023-03-23T16:47:31.043Z,17.55
2023-03-23T16:49:04.317Z,43.83
2023-03-23T16:50:39.660Z,26.63
2023-03-23T16:52:12.857Z,32.55
2023-03-23T16:53:45.952Z,18.70
2023-03-23T16:55:19.338Z,27.02
2023-03-23T16:56:52.880Z,24.92
2023-03-23T16:58:26.492Z,35.92
2023-03-23T16:59:58.769Z,17.48
2023-03-23T17:01:32.091Z,21.05
2023-03-23T17:03:05.931Z,18.15
2023-03-23T17:04:44.462Z,19.27
2023-03-23T17:06:19.021Z,19.33
2023-03-23T17:07:52.226Z,23.98
2023-03-23T17:09:26.051Z,30.98
2023-03-23T17:10:59.326Z,32.50
2023-03-23T17:12:32.610Z,32.13
2023-03-23T17:14:05.813Z,32.33
2023-03-23T17:15:39.800Z,33.80
2023-03-23T17:17:13.258Z,32.40
2023-03-23T17:18:46.444Z,28.60
2023-03-23T17:20:19.799Z,31.17
2023-03-23T17:21:54.580Z,32.22
2023-03-23T17:23:27.785Z,27.98
2023-03-23T17:25:02.276Z,27.63
2023-03-23T17:26:36.076Z,22.90
2023-03-23T17:28:09.847Z,33.97
2023-03-23T17:29:42.985Z,27.65
2023-03-23T17:31:16.236Z,38.08
2023-03-23T17:32:49.616Z,38.42
2023-03-23T17:34:22.974Z,30.52
2023-03-23T17:35:58.733Z,28.85
2023-03-23T17:37:33.535Z,27.15
2023-03-23T17:39:06.727Z,29.63
2023-03-23T17:40:40.312Z,25.65
2023-03-23T17:42:13.823Z,21.73
2023-03-23T17:43:46.957Z,20.98
2023-03-23T17:45:20.338Z,19.30
2023-03-23T17:46:56.158Z,21.25
2023-03-23T17:48:29.340Z,27.52
2023-03-23T17:50:12.327Z,28.25
2023-03-23T17:51:46.138Z,29.92
2023-03-23T17:53:21.381Z,35.00
2023-03-23T17:54:54.690Z,33.40
2023-03-23T17:56:28.661Z,30.08
2023-03-23T17:58:01.947Z,33.45
2023-03-23T17:59:35.370Z,43.55
2023-03-23T18:01:08.919Z,44.80
2023-03-23T18:02:42.215Z,25.48
2023-03-23T18:04:15.640Z,31.45
2023-03-23T18:05:49.104Z,37.83
2023-03-23T18:07:23.982Z,34.33
2023-03-23T18:08:58.712Z,40.65
2023-03-23T18:10:32.044Z,49.28
2023-03-23T18:12:05.600Z,37.28
2023-03-23T18:13:39.659Z,39.75
2023-03-23T18:15:13.341Z,31.67
2023-03-23T18:16:46.632Z,41.47
2023-03-23T18:18:20.069Z,30.63
2023-03-23T18:19:53.295Z,33.35
2023-03-23T18:21:27.061Z,25.92
2023-03-23T18:23:00.644Z,29.13
2023-03-23T18:24:35.835Z,30.42
2023-03-23T18:26:10.923Z,40.47
2023-03-23T18:27:44.203Z,33.45
2023-03-23T18:29:17.385Z,39.15
2023-03-23T18:30:50.876Z,37.38
2023-03-23T18:32:24.019Z,57.78
2023-03-23T18:33:57.499Z,72.90
2023-03-23T18:35:31.167Z,84.75
2023-03-23T18:37:05.207Z,84.45
2023-03-23T18:38:39.186Z,99.38
2023-03-23T18:40:14.541Z,81.88
2023-03-23T18:41:47.776Z,76.63
2023-03-23T18:43:21.234Z,65.35
2023-03-23T18:44:55.970Z,62.70
2023-03-23T18:46:29.306Z,95.70
2023-03-23T18:48:04.970Z,78.32
2023-03-23T18:49:38.581Z,60.63
2023-03-23T18:51:12.316Z,30.40
2023-03-23T18:52:45.787Z,33.83
2023-03-23T18:54:19.071Z,24.38
2023-03-23T18:55:54.190Z,25.67
2023-03-23T18:57:27.815Z,27.90
2023-03-23T18:59:01.011Z,37.50
2023-03-23T19:00:34.631Z,30.58
2023-03-23T19:02:08.241Z,26.83
2023-03-23T19:03:41.944Z,36.13
2023-03-23T19:05:15.258Z,24.55
2023-03-23T19:06:48.426Z,23.25
2023-03-23T19:08:21.671Z,20.42
2023-03-23T19:09:55.014Z,21.67
2023-03-23T19:11:29.783Z,22.60
2023-03-23T19:13:03.272Z,22.05
2023-03-23T19:14:37.440Z,25.30
2023-03-23T19:16:11.045Z,23.65
2023-03-23T19:17:44.579Z,28.35
2023-03-23T19:19:17.696Z,49.60
2023-03-23T19:21:09.646Z,57.40
2023-03-23T19:22:45.037Z,62.05
2023-03-23T19:24:18.313Z,56.40
2023-03-23T19:25:53.584Z,58.58
2023-03-23T19:27:28.512Z,59.65
2023-03-23T19:30:38.056Z,67.75
2023-03-23T19:32:11.527Z,74.25
2023-03-23T19:33:45.503Z,105.03
2023-03-23T19:35:20.895Z,74.25
2023-03-23T19:37:03.261Z,63.35
2023-03-23T19:38:38.733Z,72.68
2023-03-23T19:40:31.075Z,66.15
2023-03-23T19:42:07.267Z,69.03
2023-03-23T19:43:43.453Z,56.58
2023-03-23T19:45:17.045Z,79.40
2023-03-23T19:46:50.425Z,63.53
2023-03-23T19:48:24.534Z,53.17
2023-03-23T19:49:59.960Z,50.80
2023-03-23T19:51:33.461Z,47.08
2023-03-23T19:53:06.761Z,32.92
2023-03-23T19:54:41.028Z,40.03
2023-03-23T19:56:16.201Z,65.07
2023-03-23T19:57:50.752Z,147.23
2023-03-23T19:59:25.492Z,49.97
2023-03-23T20:00:58.796Z,36.25
2023-03-23T20:02:32.211Z,34.58
2023-03-23T20:04:07.043Z,24.98
2023-03-23T20:05:41.282Z,23.48
2023-03-23T20:07:14.946Z,56.10
2023-03-23T20:08:49.232Z,40.40
2023-03-23T20:10:23.525Z,27.60
2023-03-23T20:11:57.090Z,25.23
2023-03-23T20:13:30.193Z,27.00
2023-03-23T20:15:05.458Z,27.40
2023-03-23T20:16:38.927Z,27.40
2023-03-23T20:18:14.670Z,29.67
2023-03-23T20:19:47.937Z,22.38
2023-03-23T20:21:23.017Z,26.35
2023-03-23T20:22:57.972Z,23.42
2023-03-23T20:24:31.862Z,20.40
2023-03-23T20:26:07.918Z,19.23
2023-03-23T20:27:41.748Z,21.55
2023-03-23T20:29:15.376Z,20.10
2023-03-23T20:30:49.890Z,26.20
2023-03-23T20:32:46.368Z,23.90
2023-03-23T20:34:29.047Z,24.52
2023-03-23T20:36:03.443Z,25.77
2023-03-23T20:37:38.703Z,26.95
2023-03-23T20:39:14.844Z,29.90
2023-03-23T20:40:48.209Z,24.40
2023-03-23T20:42:21.611Z,34.97
2023-03-23T20:43:54.770Z,29.50
2023-03-23T20:45:28.283Z,30.75
2023-03-23T20:47:04.180Z,23.42
2023-03-23T20:48:38.510Z,22.65
2023-03-23T20:50:12.475Z,23.10
2023-03-23T20:51:46.705Z,24.30
2023-03-23T20:53:20.522Z,22.15
2023-03-23T20:54:54.033Z,29.25
2023-03-23T20:56:27.301Z,33.15
2023-03-23T20:58:00.572Z,24.13
2023-03-23T20:59:33.910Z,30.10
2023-03-23T21:01:09.329Z,25.67
2023-03-23T21:02:43.982Z,28.15
2023-03-23T21:04:19.989Z,22.80
2023-03-23T21:05:53.258Z,24.50
2023-03-23T21:07:27.535Z,29.00
2023-03-23T21:09:00.986Z,40.83
2023-03-23T21:10:34.290Z,36.35
2023-03-23T21:12:09.318Z,34.15
2023-03-23T21:13:41.506Z,28.65
2023-03-23T21:15:14.695Z,30.42
2023-03-23T21:16:47.988Z,32.20
2023-03-23T21:18:23.143Z,27.08
2023-03-23T21:19:56.734Z,31.77
2023-03-23T21:21:29.979Z,33.63
2023-03-23T21:23:05.992Z,36.63
2023-03-23T21:24:40.464Z,32.13
2023-03-23T21:26:16.011Z,27.35
2023-03-23T21:27:49.449Z,24.45
2023-03-23T21:29:24.439Z,18.55
2023-03-23T21:31:02.381Z,25.58
2023-03-23T21:32:35.780Z,21.85
2023-03-23T21:34:10.359Z,21.90
2023-03-23T21:35:43.749Z,17.17
2023-03-23T21:37:17.142Z,20.85
2023-03-23T21:38:50.456Z,17.92
2023-03-23T21:40:23.611Z,20.23
2023-03-23T21:41:59.664Z,15.27
2023-03-23T21:43:32.032Z,17.92
2023-03-23T21:45:06.291Z,23.13
2023-03-23T21:46:40.391Z,19.25
2023-03-23T21:48:15.685Z,19.13
2023-03-23T21:49:51.769Z,20.95
2023-03-23T21:51:27.265Z,34.58
2023-03-23T21:53:01.496Z,27.05
2023-03-23T21:54:34.871Z,21.35
2023-03-23T21:56:10.221Z,39.85
2023-03-23T21:57:43.778Z,29.48
2023-03-23T21:59:16.976Z,28.88
2023-03-23T22:00:54.164Z,22.13
2023-03-23T22:02:27.568Z,19.00
2023-03-23T22:04:00.943Z,20.25
2023-03-23T22:05:36.510Z,23.30
2023-03-23T22:07:10.266Z,19.42
2023-03-23T22:08:45.233Z,21.02
2023-03-23T22:10:18.750Z,22.23
2023-03-23T22:11:51.980Z,19.52
2023-03-23T22:13:25.549Z,20.92
2023-03-23T22:14:58.843Z,21.23
2023-03-23T22:16:32.680Z,24.00
2023-03-23T22:18:06.123Z,19.98
2023-03-23T22:19:40.574Z,16.50
2023-03-23T22:21:17.578Z,16.88
2023-03-23T22:22:51.700Z,19.23
2023-03-23T22:24:25.105Z,19.63
2023-03-23T22:25:57.617Z,19.70
2023-03-23T22:27:30.966Z,18.63
2023-03-23T22:29:04.940Z,19.15
2023-03-23T22:30:38.698Z,22.20
2023-03-23T22:32:12.069Z,18.92
2023-03-23T22:33:46.240Z,19.67
2023-03-23T22:35:19.666Z,17.63
2023-03-23T22:36:54.436Z,20.83
2023-03-23T22:38:27.988Z,18.83
2023-03-23T22:40:01.794Z,20.02
2023-03-23T22:41:37.050Z,29.52
2023-03-23T22:43:10.296Z,18.77
2023-03-23T22:44:43.771Z,21.40
2023-03-23T22:46:17.663Z,17.67
2023-03-23T22:47:51.252Z,17.90
2023-03-23T22:49:24.526Z,15.50
2023-03-23T22:51:02.831Z,17.45
2023-03-23T22:52:41.583Z,24.92
2023-03-23T22:54:14.863Z,28.67
2023-03-23T22:55:50.421Z,20.70
2023-03-23T22:57:23.695Z,21.27
2023-03-23T22:59:02.146Z,17.88
2023-03-23T23:00:35.377Z,20.90
2023-03-23T23:02:08.776Z,18.85
2023-03-23T23:03:42.616Z,17.42
2023-03-23T23:05:20.703Z,20.27
2023-03-23T23:07:03.205Z,19.70
2023-03-23T23:08:45.795Z,18.05
2023-03-23T23:10:19.577Z,32.55
2023-03-23T23:11:52.922Z,24.23
2023-03-23T23:13:26.985Z,26.08
2023-03-23T23:15:00.660Z,25.13
2023-03-23T23:16:34.353Z,23.02
2023-03-23T23:18:08.071Z,29.83
2023-03-23T23:19:41.396Z,20.55
2023-03-23T23:21:16.730Z,24.42
2023-03-23T23:22:50.009Z,22.50
2023-03-23T23:24:26.511Z,24.30
2023-03-23T23:25:59.720Z,21.70
2023-03-23T23:27:33.286Z,19.45
2023-03-23T23:29:06.539Z,18.48
2023-03-23T23:30:39.602Z,17.77
2023-03-23T23:32:13.148Z,17.63
2023-03-23T23:33:46.773Z,15.23
2023-03-23T23:35:20.095Z,16.15
2023-03-23T23:36:53.595Z,17.95
2023-03-23T23:38:26.969Z,16.80
2023-03-23T23:40:01.733Z,21.05
2023-03-23T23:41:35.255Z,19.30
2023-03-23T23:43:07.954Z,18.70
2023-03-23T23:44:41.209Z,15.35
2023-03-23T23:46:14.705Z,17.08
2023-03-23T23:47:47.432Z,17.88
2023-03-23T23:49:23.038Z,17.67
2023-03-23T23:50:56.324Z,18.95
2023-03-23T23:52:29.791Z,17.75
2023-03-23T23:54:04.615Z,18.77
2023-03-23T23:55:40.162Z,16.08
2023-03-23T23:57:13.625Z,15.63
2023-03-23T23:58:48.320Z,17.67
